createdAt,value
2023-03-26T00:00:54.010Z,100831.50
2023-03-26T00:03:20.442Z,100836.47
2023-03-26T00:05:48.139Z,100822.94
2023-03-26T00:08:16.905Z,100826.69
2023-03-26T00:10:44.129Z,100828.25
2023-03-26T00:13:10.886Z,100830.88
2023-03-26T00:15:37.672Z,100824.03
2023-03-26T00:18:04.170Z,100825.13
2023-03-26T00:20:32.746Z,100815.13
2023-03-26T00:23:01.490Z,100811.22
2023-03-26T00:25:28.382Z,100811.78
2023-03-26T00:27:54.743Z,100816.63
2023-03-26T00:30:21.364Z,100821.69
2023-03-26T00:32:53.354Z,100823.09
2023-03-26T00:35:20.705Z,100815.16
2023-03-26T00:37:47.070Z,100804.28
2023-03-26T00:40:13.645Z,100798.69
2023-03-26T00:42:39.982Z,100802.13
2023-03-26T00:45:07.367Z,100798.69
2023-03-26T00:47:34.518Z,100791.66
2023-03-26T00:50:01.426Z,100790.69
2023-03-26T00:52:28.664Z,100782.28
2023-03-26T00:54:55.801Z,100788.63
2023-03-26T00:57:34.645Z,100786.47
2023-03-26T01:00:15.780Z,100776.97
2023-03-26T01:02:45.080Z,100780.22
2023-03-26T01:05:36.266Z,100779.13
2023-03-26T01:08:15.110Z,100774.91
2023-03-26T01:10:43.446Z,100779.63
2023-03-26T01:13:10.011Z,100773.25
2023-03-26T01:15:37.340Z,100772.94
2023-03-26T01:18:09.770Z,100765.78
2023-03-26T01:20:46.520Z,100768.13
2023-03-26T01:23:20.253Z,100756.97
2023-03-26T01:25:57.759Z,100750.59
2023-03-26T01:28:30.671Z,100743.63
2023-03-26T01:31:09.976Z,100735.19
2023-03-26T01:33:46.802Z,100731.78
2023-03-26T01:36:29.097Z,100732.06
2023-03-26T01:39:07.942Z,100735.03
2023-03-26T01:41:47.208Z,100726.78
2023-03-26T01:44:28.807Z,100721.69
2023-03-26T01:46:55.606Z,100726.38
2023-03-26T01:49:22.052Z,100724.81
2023-03-26T01:51:48.687Z,100719.50
2023-03-26T01:54:19.604Z,100713.63
2023-03-26T01:57:07.467Z,100716.28
2023-03-26T01:59:48.303Z,100706.75
2023-03-26T02:02:33.084Z,100704.63
2023-03-26T02:05:17.392Z,100695.59
2023-03-26T02:07:55.888Z,100690.09
2023-03-26T02:10:30.770Z,100678.28
2023-03-26T02:12:58.873Z,100682.59
2023-03-26T02:15:25.492Z,100678.41
2023-03-26T02:17:52.869Z,100680.69
2023-03-26T02:20:20.483Z,100678.63
2023-03-26T02:22:48.205Z,100678.16
2023-03-26T02:25:17.664Z,100672.38
2023-03-26T02:27:45.139Z,100670.22
2023-03-26T02:30:15.674Z,100662.75
2023-03-26T02:32:43.750Z,100656.38
2023-03-26T02:35:11.896Z,100659.34
2023-03-26T02:37:39.059Z,100661.09
2023-03-26T02:40:11.016Z,100657.81
2023-03-26T02:42:38.309Z,100659.41
2023-03-26T02:45:06.682Z,100651.16
2023-03-26T02:47:33.831Z,100657.25
2023-03-26T02:50:01.337Z,100650.28
2023-03-26T02:52:27.668Z,100648.56
2023-03-26T02:54:54.115Z,100651.72
2023-03-26T02:57:20.839Z,100647.50
2023-03-26T02:59:47.176Z,100647.06
2023-03-26T03:02:14.557Z,100655.97
2023-03-26T03:04:41.010Z,100646.81
2023-03-26T03:07:07.645Z,100643.56
2023-03-26T03:09:34.659Z,100649.03
2023-03-26T03:12:01.015Z,100638.91
2023-03-26T03:14:27.323Z,100637.84
2023-03-26T03:16:53.834Z,100636.47
2023-03-26T03:19:20.530Z,100632.72
2023-03-26T03:21:46.842Z,100636.63
2023-03-26T03:24:13.861Z,100627.63
2023-03-26T03:26:42.171Z,100627.31
2023-03-26T03:29:09.238Z,100628.06
2023-03-26T03:31:35.842Z,100626.22
2023-03-26T03:34:02.192Z,100624.03
2023-03-26T03:36:30.268Z,100616.09
2023-03-26T03:39:02.138Z,100611.59
2023-03-26T03:41:29.333Z,100619.53
2023-03-26T03:43:55.715Z,100609.72
2023-03-26T03:46:22.080Z,100614.25
2023-03-26T03:48:49.736Z,100615.03
2023-03-26T03:51:18.077Z,100615.81
2023-03-26T03:53:45.935Z,100616.59
2023-03-26T03:56:14.447Z,100611.59
2023-03-26T03:58:41.585Z,100617.38
2023-03-26T04:01:07.983Z,100611.28
2023-03-26T04:03:38.521Z,100607.56
2023-03-26T04:06:06.846Z,100598.53
2023-03-26T04:08:34.903Z,100601.94
2023-03-26T04:11:02.258Z,100596.66
2023-03-26T04:13:28.670Z,100594.00
2023-03-26T04:15:56.073Z,100586.84
2023-03-26T04:18:23.250Z,100583.91
2023-03-26T04:20:49.752Z,100580.47
2023-03-26T04:23:18.307Z,100574.88
2023-03-26T04:25:49.179Z,100575.19
2023-03-26T04:28:42.242Z,100574.88
2023-03-26T04:31:13.738Z,100568.03
2023-03-26T04:33:40.190Z,100563.50
2023-03-26T04:36:07.242Z,100564.28
2023-03-26T04:38:41.127Z,100551.81
2023-03-26T04:41:07.775Z,100548.88
2023-03-26T04:43:42.156Z,100548.88
2023-03-26T04:46:10.419Z,100539.81
2023-03-26T04:48:38.618Z,100540.13
2023-03-26T04:51:09.797Z,100535.94
2023-03-26T04:53:36.636Z,100532.03
2023-03-26T04:56:11.991Z,100526.28
2023-03-26T04:58:39.774Z,100525.50
2023-03-26T05:01:10.176Z,100513.66
2023-03-26T05:03:40.654Z,100518.97
2023-03-26T05:06:07.401Z,100517.88
2023-03-26T05:08:33.753Z,100501.97
2023-03-26T05:11:00.234Z,100499.34
2023-03-26T05:13:26.560Z,100495.59
2023-03-26T05:15:52.925Z,100506.97
2023-03-26T05:18:19.315Z,100497.94
2023-03-26T05:20:46.390Z,100498.41
2023-03-26T05:23:12.846Z,100495.44
2023-03-26T05:25:39.221Z,100492.81
2023-03-26T05:28:05.677Z,100491.72
2023-03-26T05:30:32.159Z,100486.72
2023-03-26T05:32:58.580Z,100481.72
2023-03-26T05:35:25.027Z,100480.16
2023-03-26T05:37:51.474Z,100481.25
2023-03-26T05:40:17.988Z,100472.56
2023-03-26T05:42:45.287Z,100470.69
2023-03-26T05:45:13.777Z,100476.75
2023-03-26T05:47:40.292Z,100466.94
2023-03-26T05:50:08.214Z,100470.84
2023-03-26T05:52:34.636Z,100462.13
2023-03-26T05:55:01.084Z,100459.50
2023-03-26T05:57:30.257Z,100456.53
2023-03-26T05:59:56.596Z,100455.44
2023-03-26T06:02:23.680Z,100456.22
2023-03-26T06:04:50.783Z,100439.22
2023-03-26T06:07:18.073Z,100448.44
2023-03-26T06:09:45.066Z,100445.16
2023-03-26T06:12:11.800Z,100437.97
2023-03-26T06:14:38.221Z,100428.50
2023-03-26T06:17:04.601Z,100428.50
2023-03-26T06:19:30.915Z,100423.97
2023-03-26T06:21:57.317Z,100423.97
2023-03-26T06:24:23.736Z,100422.59
2023-03-26T06:26:50.100Z,100421.94
2023-03-26T06:29:16.506Z,100415.25
2023-03-26T06:31:42.910Z,100413.41
2023-03-26T06:34:09.306Z,100415.41
2023-03-26T06:36:35.723Z,100418.84
2023-03-26T06:39:02.214Z,100419.00
2023-03-26T06:41:35.132Z,100414.63
2023-03-26T06:44:01.518Z,100410.91
2023-03-26T06:46:27.997Z,100409.50
2023-03-26T06:48:54.382Z,100411.06
2023-03-26T06:51:20.888Z,100412.28
2023-03-26T06:53:47.292Z,100413.38
2023-03-26T06:56:13.606Z,100413.38
2023-03-26T06:58:39.934Z,100411.19
2023-03-26T07:01:06.598Z,100415.41
2023-03-26T07:03:33.031Z,100410.41
2023-03-26T07:05:59.403Z,100405.13
2023-03-26T07:08:26.536Z,100408.25
2023-03-26T07:10:53.194Z,100403.72
2023-03-26T07:13:19.784Z,100409.94
2023-03-26T07:15:48.831Z,100401.38
2023-03-26T07:18:15.524Z,100410.25
2023-03-26T07:20:43.557Z,100404.31
2023-03-26T07:23:11.581Z,100401.09
2023-03-26T07:25:38.398Z,100402.31
2023-03-26T07:28:24.386Z,100406.22
2023-03-26T07:30:53.664Z,100413.53
2023-03-26T07:33:45.514Z,100404.97
2023-03-26T07:36:32.647Z,100399.00
2023-03-26T07:39:11.017Z,100399.94
2023-03-26T07:41:43.866Z,100387.97
2023-03-26T07:44:22.437Z,100397.91
2023-03-26T07:46:49.303Z,100401.00
2023-03-26T07:49:17.759Z,100394.94
2023-03-26T07:51:44.378Z,100394.00
2023-03-26T07:54:11.138Z,100395.25
2023-03-26T07:56:48.994Z,100396.78
2023-03-26T07:59:26.737Z,100391.94
2023-03-26T08:02:13.927Z,100390.84
2023-03-26T08:04:40.467Z,100392.59
2023-03-26T08:07:34.875Z,100391.66
2023-03-26T08:10:04.192Z,100389.16
2023-03-26T08:12:46.091Z,100389.28
2023-03-26T08:15:29.518Z,100382.28
2023-03-26T08:18:19.354Z,100381.50
2023-03-26T08:20:49.287Z,100384.91
2023-03-26T08:23:27.644Z,100383.38
2023-03-26T08:26:19.076Z,100386.31
2023-03-26T08:28:50.647Z,100380.56
2023-03-26T08:31:19.431Z,100388.84
2023-03-26T08:33:45.874Z,100389.16
2023-03-26T08:36:12.256Z,100387.28
2023-03-26T08:38:38.584Z,100381.66
2023-03-26T08:41:24.827Z,100382.88
2023-03-26T08:44:06.113Z,100381.34
2023-03-26T08:46:38.038Z,100381.34
2023-03-26T08:49:42.664Z,100386.50
2023-03-26T08:52:49.232Z,100382.59
2023-03-26T08:55:43.612Z,100378.84
2023-03-26T08:58:43.544Z,100385.41
2023-03-26T09:01:12.361Z,100385.09
2023-03-26T09:04:12.220Z,100386.81
2023-03-26T09:06:50.764Z,100388.41
2023-03-26T09:09:29.889Z,100390.91
2023-03-26T09:12:18.063Z,100389.19
2023-03-26T09:14:53.622Z,100387.78
2023-03-26T09:18:03.030Z,100388.41
2023-03-26T09:20:38.536Z,100383.28
2023-03-26T09:23:07.788Z,100379.41
2023-03-26T09:25:56.102Z,100376.91
2023-03-26T09:28:44.488Z,100385.47
2023-03-26T09:31:32.858Z,100385.47
2023-03-26T09:34:29.857Z,100385.47
2023-03-26T09:37:24.491Z,100389.69
2023-03-26T09:40:15.138Z,100386.41
2023-03-26T09:43:00.931Z,100389.03
2023-03-26T09:45:52.639Z,100385.59
2023-03-26T09:48:48.347Z,100389.19
2023-03-26T09:51:40.258Z,100392.75
2023-03-26T09:54:44.554Z,100395.88
2023-03-26T09:57:36.038Z,100399.28
2023-03-26T10:00:23.977Z,100402.88
2023-03-26T10:03:08.299Z,100401.34
2023-03-26T10:06:11.832Z,100403.06
2023-03-26T10:08:41.320Z,100410.56
2023-03-26T10:11:18.812Z,100412.91
2023-03-26T10:14:03.749Z,100412.91
2023-03-26T10:16:42.526Z,100407.31
2023-03-26T10:19:29.367Z,100411.69
2023-03-26T10:22:09.195Z,100415.69
2023-03-26T10:25:10.710Z,100414.00
2023-03-26T10:28:07.194Z,100420.88
2023-03-26T10:30:54.715Z,100422.41
2023-03-26T10:33:46.328Z,100426.63
2023-03-26T10:36:33.511Z,100423.03
2023-03-26T10:39:37.055Z,100426.94
2023-03-26T10:42:43.396Z,100421.63
2023-03-26T10:45:25.617Z,100426.28
2023-03-26T10:48:19.572Z,100424.91
2023-03-26T10:50:51.816Z,100426.63
2023-03-26T10:53:51.331Z,100430.50
2023-03-26T10:56:30.067Z,100428.16
2023-03-26T10:58:56.965Z,100437.34
2023-03-26T11:02:01.662Z,100439.53
2023-03-26T11:04:54.451Z,100434.25
2023-03-26T11:07:43.991Z,100446.09
2023-03-26T11:10:48.190Z,100452.22
2023-03-26T11:13:42.625Z,100450.19
2023-03-26T11:16:20.575Z,100445.66
2023-03-26T11:19:05.886Z,100448.63
2023-03-26T11:21:58.283Z,100451.72
2023-03-26T11:24:54.132Z,100454.53
2023-03-26T11:27:47.891Z,100462.78
2023-03-26T11:30:48.433Z,100458.56
2023-03-26T11:33:25.954Z,100466.84
2023-03-26T11:36:06.485Z,100471.53
2023-03-26T11:38:45.717Z,100472.94
2023-03-26T11:41:22.505Z,100473.69
2023-03-26T11:43:55.327Z,100474.03
2023-03-26T11:46:23.609Z,100479.78
2023-03-26T11:48:57.450Z,100477.94
2023-03-26T11:51:32.843Z,100479.59
2023-03-26T11:54:00.493Z,100478.97
2023-03-26T11:56:33.991Z,100482.41
2023-03-26T11:59:17.877Z,100490.22
2023-03-26T12:01:52.535Z,100486.94
2023-03-26T12:04:33.766Z,100492.53
2023-03-26T12:07:13.885Z,100493.00
2023-03-26T12:09:55.793Z,100495.81
2023-03-26T12:12:26.589Z,100501.91
2023-03-26T12:14:53.452Z,100495.19
2023-03-26T12:17:34.690Z,100493.81
2023-03-26T12:20:02.410Z,100492.72
2023-03-26T12:22:43.394Z,100500.66
2023-03-26T12:25:25.111Z,100502.53
2023-03-26T12:28:05.501Z,100503.28
2023-03-26T12:30:37.778Z,100507.16
2023-03-26T12:33:05.365Z,100507.78
2023-03-26T12:35:35.116Z,100505.69
2023-03-26T12:38:22.154Z,100506.91
2023-03-26T12:40:49.634Z,100508.59
2023-03-26T12:44:54.770Z,100507.75
2023-03-26T12:47:56.512Z,100512.91
2023-03-26T12:49:18.775Z,100506.16
2023-03-26T12:51:58.525Z,100514.19
2023-03-26T12:54:36.024Z,100518.84
2023-03-26T12:57:18.644Z,100525.41
2023-03-26T12:59:45.061Z,100522.31
2023-03-26T13:02:39.424Z,100527.00
2023-03-26T13:05:23.688Z,100526.66
2023-03-26T13:08:12.482Z,100519.22
2023-03-26T13:10:57.775Z,100521.53
2023-03-26T13:13:58.897Z,100530.72
2023-03-26T13:16:53.135Z,100525.84
2023-03-26T13:19:37.445Z,100537.13
2023-03-26T13:22:25.470Z,100536.94
2023-03-26T13:25:30.147Z,100544.25
2023-03-26T13:28:10.763Z,100543.44
2023-03-26T13:30:44.620Z,100543.13
2023-03-26T13:33:38.186Z,100550.16
2023-03-26T13:36:24.250Z,100550.22
2023-03-26T13:39:24.559Z,100558.31
2023-03-26T13:42:16.157Z,100556.56
2023-03-26T13:44:52.753Z,100554.41
2023-03-26T13:47:36.402Z,100558.47
2023-03-26T13:50:30.296Z,100562.38
2023-03-26T13:53:06.391Z,100567.19
2023-03-26T13:55:47.443Z,100572.50
2023-03-26T13:58:17.547Z,100577.47
2023-03-26T14:01:07.805Z,100570.28
2023-03-26T14:03:49.362Z,100578.44
2023-03-26T14:06:33.883Z,100576.25
2023-03-26T14:09:11.447Z,100578.91
2023-03-26T14:11:51.871Z,100588.75
2023-03-26T14:14:37.475Z,100587.06
2023-03-26T14:17:17.985Z,100598.63
2023-03-26T14:20:05.149Z,100598.50
2023-03-26T14:22:44.329Z,100603.03
2023-03-26T14:25:13.667Z,100603.66
2023-03-26T14:28:19.281Z,100611.94
2023-03-26T14:31:08.023Z,100616.63
2023-03-26T14:33:34.665Z,100625.06
2023-03-26T14:36:17.315Z,100619.78
2023-03-26T14:38:50.139Z,100623.53
2023-03-26T14:41:33.558Z,100635.56
2023-03-26T14:44:09.140Z,100640.38
2023-03-26T14:46:56.999Z,100641.78
2023-03-26T14:50:04.743Z,100647.72
2023-03-26T14:52:47.737Z,100647.84
2023-03-26T14:55:35.351Z,100653.63
2023-03-26T14:58:29.560Z,100660.38
2023-03-26T15:01:08.031Z,100675.50
2023-03-26T15:03:58.665Z,100671.13
2023-03-26T15:06:45.190Z,100679.53
2023-03-26T15:09:29.582Z,100684.34
2023-03-26T15:12:13.650Z,100693.72
2023-03-26T15:15:26.218Z,100694.00
2023-03-26T15:18:11.667Z,100698.06
2023-03-26T15:21:19.599Z,100702.28
2023-03-26T15:24:07.944Z,100701.66
2023-03-26T15:26:46.570Z,100704.94
2023-03-26T15:29:42.206Z,100711.97
2023-03-26T15:32:40.893Z,100716.50
2023-03-26T15:35:16.851Z,100712.13
2023-03-26T15:38:11.153Z,100726.50
2023-03-26T15:40:50.801Z,100732.41
2023-03-26T15:43:21.303Z,100728.78
2023-03-26T15:46:24.468Z,100729.72
2023-03-26T15:48:57.660Z,100740.13
2023-03-26T15:51:47.417Z,100746.78
2023-03-26T15:54:29.421Z,100763.09
2023-03-26T15:57:08.900Z,100758.56
2023-03-26T15:59:59.221Z,100773.38
2023-03-26T16:02:50.225Z,100782.41
2023-03-26T16:05:22.715Z,100784.69
2023-03-26T16:08:04.696Z,100790.91
2023-03-26T16:10:55.981Z,100800.97
2023-03-26T16:13:22.645Z,100790.50
2023-03-26T16:16:09.258Z,100806.16
2023-03-26T16:18:43.874Z,100807.53
2023-03-26T16:21:30.416Z,100814.22
2023-03-26T16:24:07.401Z,100812.81
2023-03-26T16:26:54.799Z,100819.53
2023-03-26T16:29:22.613Z,100824.81
2023-03-26T16:32:17.356Z,100828.06
2023-03-26T16:35:12.829Z,100832.38
2023-03-26T16:37:50.495Z,100844.16
2023-03-26T16:40:17.068Z,100846.63
2023-03-26T16:43:01.998Z,100857.50
2023-03-26T16:45:37.825Z,100871.81
2023-03-26T16:48:23.153Z,100871.03
2023-03-26T16:51:18.566Z,100871.34
2023-03-26T16:53:45.905Z,100874.56
2023-03-26T16:56:16.710Z,100880.16
2023-03-26T16:58:48.967Z,100888.69
2023-03-26T17:01:42.976Z,100900.34
2023-03-26T17:04:23.516Z,100913.09
2023-03-26T17:07:13.966Z,100908.22
2023-03-26T17:09:59.054Z,100912.53
2023-03-26T17:12:47.799Z,100932.31
2023-03-26T17:15:47.047Z,100931.34
2023-03-26T17:18:27.512Z,100939.28
2023-03-26T17:21:12.442Z,100949.47
2023-03-26T17:24:04.079Z,100953.84
2023-03-26T17:27:01.186Z,100952.69
2023-03-26T17:29:51.974Z,100969.09
2023-03-26T17:32:21.420Z,100976.06
2023-03-26T17:34:50.896Z,100976.94
2023-03-26T17:37:17.212Z,100973.00
2023-03-26T17:39:43.590Z,100979.19
2023-03-26T17:42:15.958Z,100996.09
2023-03-26T17:44:51.927Z,100999.03
2023-03-26T17:47:26.630Z,101004.63
2023-03-26T17:50:04.244Z,101014.47
2023-03-26T17:52:48.101Z,101007.41
2023-03-26T17:55:19.815Z,101016.97
2023-03-26T17:57:52.295Z,101025.50
2023-03-26T18:00:26.587Z,101024.50
2023-03-26T18:02:57.170Z,101037.22
2023-03-26T18:05:28.032Z,101036.69
2023-03-26T18:08:01.910Z,101045.50
2023-03-26T18:11:02.937Z,101050.06
2023-03-26T18:14:06.086Z,101051.78
2023-03-26T18:16:45.910Z,101072.72
2023-03-26T18:19:21.835Z,101076.78
2023-03-26T18:21:59.571Z,101075.78
2023-03-26T18:24:37.534Z,101080.56
2023-03-26T18:27:22.148Z,101092.22
2023-03-26T18:29:57.515Z,101097.25
2023-03-26T18:32:33.480Z,101096.19
2023-03-26T18:35:13.305Z,101104.88
2023-03-26T18:37:40.291Z,101111.75
2023-03-26T18:40:16.457Z,101112.53
2023-03-26T18:42:52.356Z,101122.31
2023-03-26T18:45:27.125Z,101132.88
2023-03-26T18:47:56.694Z,101133.13
2023-03-26T18:50:27.715Z,101141.34
2023-03-26T18:52:57.989Z,101151.63
2023-03-26T18:55:27.227Z,101159.53
2023-03-26T18:57:53.534Z,101163.25
2023-03-26T19:00:25.532Z,101168.59
2023-03-26T19:03:03.542Z,101164.41
2023-03-26T19:05:32.311Z,101185.84
2023-03-26T19:08:03.434Z,101182.75
2023-03-26T19:10:32.046Z,101185.44
2023-03-26T19:13:01.419Z,101181.25
2023-03-26T19:15:31.522Z,101200.00
2023-03-26T19:18:07.067Z,101192.13
2023-03-26T19:20:40.453Z,101199.78
2023-03-26T19:23:09.659Z,101205.31
2023-03-26T19:25:42.876Z,101212.19
2023-03-26T19:28:17.852Z,101209.00
2023-03-26T19:30:44.484Z,101216.66
2023-03-26T19:33:18.882Z,101218.00
2023-03-26T19:35:51.553Z,101213.53
2023-03-26T19:38:29.323Z,101236.53
2023-03-26T19:40:57.602Z,101239.97
2023-03-26T19:43:25.630Z,101241.63
2023-03-26T19:46:00.236Z,101253.47
2023-03-26T19:48:45.315Z,101253.25
2023-03-26T19:51:19.929Z,101258.56
2023-03-26T19:53:53.962Z,101264.38
2023-03-26T19:56:21.867Z,101262.00
2023-03-26T19:58:49.878Z,101266.00
2023-03-26T20:01:23.645Z,101274.16
2023-03-26T20:03:59.901Z,101273.94
2023-03-26T20:06:42.652Z,101287.09
2023-03-26T20:09:11.582Z,101286.06
2023-03-26T20:11:39.292Z,101287.13
2023-03-26T20:14:14.736Z,101297.94
2023-03-26T20:16:42.954Z,101304.00
2023-03-26T20:19:10.971Z,101305.03
2023-03-26T20:21:41.046Z,101305.03
2023-03-26T20:24:14.520Z,101318.50
2023-03-26T20:26:40.955Z,101319.28
2023-03-26T20:29:07.458Z,101317.19
2023-03-26T20:31:34.145Z,101327.97
2023-03-26T20:34:00.584Z,101325.63
2023-03-26T20:36:32.685Z,101325.63
2023-03-26T20:38:59.250Z,101331.97
2023-03-26T20:41:26.111Z,101333.03
2023-03-26T20:43:52.723Z,101340.41
2023-03-26T20:46:24.119Z,101346.72
2023-03-26T20:48:57.851Z,101350.44
2023-03-26T20:51:24.414Z,101359.41
2023-03-26T20:53:50.755Z,101364.13
2023-03-26T20:56:19.310Z,101365.75
2023-03-26T20:58:50.852Z,101377.59
2023-03-26T21:01:24.132Z,101379.19
2023-03-26T21:03:50.821Z,101377.63
2023-03-26T21:06:17.118Z,101386.84
2023-03-26T21:08:44.788Z,101377.38
2023-03-26T21:11:26.533Z,101382.66
2023-03-26T21:14:01.179Z,101386.34
2023-03-26T21:16:27.980Z,101392.91
2023-03-26T21:18:54.705Z,101397.69
2023-03-26T21:21:52.727Z,101405.31
2023-03-26T21:24:32.963Z,101406.38
2023-03-26T21:27:28.094Z,101412.69
2023-03-26T21:29:55.551Z,101410.59
2023-03-26T21:32:22.718Z,101413.72
2023-03-26T21:34:58.838Z,101419.78
2023-03-26T21:37:26.349Z,101418.97
2023-03-26T21:39:52.946Z,101421.59
2023-03-26T21:42:19.609Z,101422.66
2023-03-26T21:44:46.738Z,101436.88
2023-03-26T21:47:13.576Z,101442.13
2023-03-26T21:49:40.148Z,101456.34
2023-03-26T21:52:06.883Z,101451.34
2023-03-26T21:54:33.671Z,101461.88
2023-03-26T21:57:06.715Z,101464.75
2023-03-26T22:00:00.672Z,101466.09
2023-03-26T22:02:52.140Z,101479.25
2023-03-26T22:05:31.154Z,101476.91
2023-03-26T22:08:01.622Z,101479.50
2023-03-26T22:10:28.635Z,101486.91
2023-03-26T22:12:55.089Z,101497.72
2023-03-26T22:15:21.692Z,101496.13
2023-03-26T22:17:54.174Z,101493.78
2023-03-26T22:20:25.438Z,101501.97
2023-03-26T22:22:53.204Z,101507.22
2023-03-26T22:25:21.777Z,101505.38
2023-03-26T22:27:50.036Z,101514.59
2023-03-26T22:30:17.039Z,101516.19
2023-03-26T22:32:44.584Z,101513.31
2023-03-26T22:35:11.390Z,101520.16
2023-03-26T22:37:37.755Z,101520.16
2023-03-26T22:40:09.019Z,101522.22
2023-03-26T22:42:36.256Z,101532.25
2023-03-26T22:45:03.988Z,101535.38
2023-03-26T22:47:30.605Z,101537.50
2023-03-26T22:49:57.198Z,101538.03
2023-03-26T22:52:23.666Z,101552.75
2023-03-26T22:54:50.014Z,101547.50
2023-03-26T22:57:16.419Z,101547.47
2023-03-26T22:59:42.964Z,101553.78
2023-03-26T23:02:11.115Z,101555.09
2023-03-26T23:04:37.688Z,101557.19
2023-03-26T23:07:05.258Z,101563.22
2023-03-26T23:09:31.668Z,101575.56
2023-03-26T23:11:58.258Z,101573.97
2023-03-26T23:14:24.713Z,101583.41
2023-03-26T23:16:51.683Z,101582.09
2023-03-26T23:19:18.122Z,101587.84
2023-03-26T23:21:44.445Z,101586.28
2023-03-26T23:24:10.783Z,101591.03
2023-03-26T23:26:49.725Z,101598.34
2023-03-26T23:29:17.374Z,101604.41
2023-03-26T23:31:43.831Z,101603.09
2023-03-26T23:34:10.855Z,101614.13
2023-03-26T23:36:37.160Z,101607.34
2023-03-26T23:39:04.748Z,101614.97
2023-03-26T23:41:31.289Z,101625.00
2023-03-26T23:43:57.624Z,101623.69
2023-03-26T23:46:30.086Z,101630.56
2023-03-26T23:49:01.991Z,101636.03
2023-03-26T23:51:30.064Z,101633.41
2023-03-26T23:53:56.896Z,101642.09
2023-03-26T23:56:23.642Z,101648.69
2023-03-26T23:58:50.177Z,101655.78
